sensor_id;sensor_type;location;lat;lon;timestamp;temperature;humidity
3758;DHT22;1894;51.038;13.692;2023-07-31T00:02:00;17.00;99.90
3758;DHT22;1894;51.038;13.692;2023-07-31T00:04:27;17.00;99.90
3758;DHT22;1894;51.038;13.692;2023-07-31T00:06:54;17.00;99.90
3758;DHT22;1894;51.038;13.692;2023-07-31T00:09:21;17.00;99.90
3758;DHT22;1894;51.038;13.692;2023-07-31T00:11:48;16.90;99.90
3758;DHT22;1894;51.038;13.692;2023-07-31T00:14:15;16.90;99.90
3758;DHT22;1894;51.038;13.692;2023-07-31T00:16:42;16.90;99.90
3758;DHT22;1894;51.038;13.692;2023-07-31T00:19:09;16.90;99.90
3758;DHT22;1894;51.038;13.692;2023-07-31T00:21:36;16.90;99.90
3758;DHT22;1894;51.038;13.692;2023-07-31T00:24:03;16.90;99.90
3758;DHT22;1894;51.038;13.692;2023-07-31T00:26:31;16.90;99.90
3758;DHT22;1894;51.038;13.692;2023-07-31T00:28:58;16.80;99.90
3758;DHT22;1894;51.038;13.692;2023-07-31T00:31:25;16.80;99.90
3758;DHT22;1894;51.038;13.692;2023-07-31T00:33:52;16.90;99.90
3758;DHT22;1894;51.038;13.692;2023-07-31T00:36:19;16.90;99.90
3758;DHT22;1894;51.038;13.692;2023-07-31T00:38:47;16.90;99.90
3758;DHT22;1894;51.038;13.692;2023-07-31T00:41:15;16.90;99.90
3758;DHT22;1894;51.038;13.692;2023-07-31T00:43:43;16.90;99.90
3758;DHT22;1894;51.038;13.692;2023-07-31T00:46:10;17.00;99.90
3758;DHT22;1894;51.038;13.692;2023-07-31T00:48:37;16.90;99.90
3758;DHT22;1894;51.038;13.692;2023-07-31T00:51:05;16.90;99.90
3758;DHT22;1894;51.038;13.692;2023-07-31T00:53:34;16.90;99.90
3758;DHT22;1894;51.038;13.692;2023-07-31T00:56:02;16.90;99.90
3758;DHT22;1894;51.038;13.692;2023-07-31T00:58:30;16.90;99.90
3758;DHT22;1894;51.038;13.692;2023-07-31T01:00:57;16.90;99.90
3758;DHT22;1894;51.038;13.692;2023-07-31T01:03:25;16.90;99.90
3758;DHT22;1894;51.038;13.692;2023-07-31T01:09:15;16.90;99.90
3758;DHT22;1894;51.038;13.692;2023-07-31T01:11:52;16.90;99.90
3758;DHT22;1894;51.038;13.692;2023-07-31T01:14:20;16.90;99.90
3758;DHT22;1894;51.038;13.692;2023-07-31T01:16:48;16.90;99.90
3758;DHT22;1894;51.038;13.692;2023-07-31T01:19:18;16.80;99.90
3758;DHT22;1894;51.038;13.692;2023-07-31T01:24:48;16.90;99.90
3758;DHT22;1894;51.038;13.692;2023-07-31T01:27:57;16.90;99.90
3758;DHT22;1894;51.038;13.692;2023-07-31T01:30:30;16.80;99.90
3758;DHT22;1894;51.038;13.692;2023-07-31T01:33:03;16.80;99.90
3758;DHT22;1894;51.038;13.692;2023-07-31T01:35:34;16.70;99.90
3758;DHT22;1894;51.038;13.692;2023-07-31T01:38:03;16.60;99.90
3758;DHT22;1894;51.038;13.692;2023-07-31T01:40:31;16.50;99.90
3758;DHT22;1894;51.038;13.692;2023-07-31T01:42:58;16.50;99.90
3758;DHT22;1894;51.038;13.692;2023-07-31T01:45:25;16.50;99.90
3758;DHT22;1894;51.038;13.692;2023-07-31T01:47:53;16.40;99.90
3758;DHT22;1894;51.038;13.692;2023-07-31T01:50:20;16.50;99.90
3758;DHT22;1894;51.038;13.692;2023-07-31T01:52:47;16.40;99.90
3758;DHT22;1894;51.038;13.692;2023-07-31T01:55:14;16.40;99.90
3758;DHT22;1894;51.038;13.692;2023-07-31T01:57:42;16.50;99.90
3758;DHT22;1894;51.038;13.692;2023-07-31T02:00:10;16.50;99.90
3758;DHT22;1894;51.038;13.692;2023-07-31T02:02:37;16.60;99.90
3758;DHT22;1894;51.038;13.692;2023-07-31T02:05:05;16.70;99.90
3758;DHT22;1894;51.038;13.692;2023-07-31T02:07:32;16.80;99.90
3758;DHT22;1894;51.038;13.692;2023-07-31T02:10:00;16.90;99.90
3758;DHT22;1894;51.038;13.692;2023-07-31T02:12:27;16.90;99.90
3758;DHT22;1894;51.038;13.692;2023-07-31T02:14:57;16.90;99.90
3758;DHT22;1894;51.038;13.692;2023-07-31T02:17:24;17.00;99.90
3758;DHT22;1894;51.038;13.692;2023-07-31T02:19:51;17.00;99.90
3758;DHT22;1894;51.038;13.692;2023-07-31T02:22:19;17.00;99.90
3758;DHT22;1894;51.038;13.692;2023-07-31T02:24:46;17.00;99.90
3758;DHT22;1894;51.038;13.692;2023-07-31T02:27:13;17.10;99.90
3758;DHT22;1894;51.038;13.692;2023-07-31T02:29:40;17.10;99.90
3758;DHT22;1894;51.038;13.692;2023-07-31T02:32:07;17.10;99.90
3758;DHT22;1894;51.038;13.692;2023-07-31T02:34:35;17.10;99.90
3758;DHT22;1894;51.038;13.692;2023-07-31T02:37:02;17.10;99.90
3758;DHT22;1894;51.038;13.692;2023-07-31T02:39:29;17.10;99.90
3758;DHT22;1894;51.038;13.692;2023-07-31T02:41:56;17.00;99.90
3758;DHT22;1894;51.038;13.692;2023-07-31T02:44:23;16.90;99.90
3758;DHT22;1894;51.038;13.692;2023-07-31T02:46:50;16.90;99.90
3758;DHT22;1894;51.038;13.692;2023-07-31T02:49:17;16.80;99.90
3758;DHT22;1894;51.038;13.692;2023-07-31T02:51:45;16.80;99.90
3758;DHT22;1894;51.038;13.692;2023-07-31T02:54:12;16.70;99.90
3758;DHT22;1894;51.038;13.692;2023-07-31T02:56:39;16.70;99.90
3758;DHT22;1894;51.038;13.692;2023-07-31T02:59:06;16.60;99.90
3758;DHT22;1894;51.038;13.692;2023-07-31T03:01:33;16.60;99.90
3758;DHT22;1894;51.038;13.692;2023-07-31T03:04:01;16.60;99.90
3758;DHT22;1894;51.038;13.692;2023-07-31T03:06:28;16.60;99.90
3758;DHT22;1894;51.038;13.692;2023-07-31T03:08:55;16.60;99.90
3758;DHT22;1894;51.038;13.692;2023-07-31T03:11:22;16.60;99.90
3758;DHT22;1894;51.038;13.692;2023-07-31T03:13:49;16.60;99.90
3758;DHT22;1894;51.038;13.692;2023-07-31T03:16:16;16.60;99.90
3758;DHT22;1894;51.038;13.692;2023-07-31T03:18:44;16.60;99.90
3758;DHT22;1894;51.038;13.692;2023-07-31T03:21:11;16.60;99.90
3758;DHT22;1894;51.038;13.692;2023-07-31T03:23:39;16.70;99.90
3758;DHT22;1894;51.038;13.692;2023-07-31T03:26:07;16.70;99.90
3758;DHT22;1894;51.038;13.692;2023-07-31T03:28:34;16.80;99.90
3758;DHT22;1894;51.038;13.692;2023-07-31T03:31:02;16.90;99.90
3758;DHT22;1894;51.038;13.692;2023-07-31T03:33:29;16.90;99.90
3758;DHT22;1894;51.038;13.692;2023-07-31T03:35:57;16.90;99.90
3758;DHT22;1894;51.038;13.692;2023-07-31T03:38:24;16.90;99.90
3758;DHT22;1894;51.038;13.692;2023-07-31T03:40:53;16.80;99.90
3758;DHT22;1894;51.038;13.692;2023-07-31T03:43:20;16.70;99.90
3758;DHT22;1894;51.038;13.692;2023-07-31T03:45:47;16.60;99.90
3758;DHT22;1894;51.038;13.692;2023-07-31T03:48:15;16.50;99.90
3758;DHT22;1894;51.038;13.692;2023-07-31T03:50:43;16.40;99.90
3758;DHT22;1894;51.038;13.692;2023-07-31T03:53:10;16.30;99.90
3758;DHT22;1894;51.038;13.692;2023-07-31T03:55:37;16.40;99.90
3758;DHT22;1894;51.038;13.692;2023-07-31T03:58:05;16.30;99.90
3758;DHT22;1894;51.038;13.692;2023-07-31T04:00:32;16.20;99.90
3758;DHT22;1894;51.038;13.692;2023-07-31T04:02:59;16.20;99.90
3758;DHT22;1894;51.038;13.692;2023-07-31T04:05:26;16.30;99.90
3758;DHT22;1894;51.038;13.692;2023-07-31T04:07:53;16.20;99.90
3758;DHT22;1894;51.038;13.692;2023-07-31T04:10:20;16.30;99.90
3758;DHT22;1894;51.038;13.692;2023-07-31T04:12:48;16.20;99.90
3758;DHT22;1894;51.038;13.692;2023-07-31T04:15:15;16.10;99.90
3758;DHT22;1894;51.038;13.692;2023-07-31T04:17:42;15.90;99.90
3758;DHT22;1894;51.038;13.692;2023-07-31T04:20:10;15.80;99.90
3758;DHT22;1894;51.038;13.692;2023-07-31T04:22:37;15.80;99.90
3758;DHT22;1894;51.038;13.692;2023-07-31T04:25:04;15.70;99.90
3758;DHT22;1894;51.038;13.692;2023-07-31T04:27:32;15.70;99.90
3758;DHT22;1894;51.038;13.692;2023-07-31T04:29:59;15.60;99.90
3758;DHT22;1894;51.038;13.692;2023-07-31T04:32:26;15.60;99.90
3758;DHT22;1894;51.038;13.692;2023-07-31T04:34:54;15.50;99.90
3758;DHT22;1894;51.038;13.692;2023-07-31T04:37:21;15.60;99.90
3758;DHT22;1894;51.038;13.692;2023-07-31T04:39:48;15.50;99.90
3758;DHT22;1894;51.038;13.692;2023-07-31T04:42:15;15.50;99.90
3758;DHT22;1894;51.038;13.692;2023-07-31T04:44:42;15.50;99.90
3758;DHT22;1894;51.038;13.692;2023-07-31T04:47:09;15.60;99.90
3758;DHT22;1894;51.038;13.692;2023-07-31T04:49:36;15.60;99.90
3758;DHT22;1894;51.038;13.692;2023-07-31T04:52:04;15.60;99.90
3758;DHT22;1894;51.038;13.692;2023-07-31T04:54:31;15.60;99.90
3758;DHT22;1894;51.038;13.692;2023-07-31T04:56:58;15.70;99.90
3758;DHT22;1894;51.038;13.692;2023-07-31T04:59:25;15.70;99.90
3758;DHT22;1894;51.038;13.692;2023-07-31T05:01:53;15.70;99.90
3758;DHT22;1894;51.038;13.692;2023-07-31T05:04:20;15.70;99.90
3758;DHT22;1894;51.038;13.692;2023-07-31T05:06:47;15.80;99.90
3758;DHT22;1894;51.038;13.692;2023-07-31T05:09:15;15.80;99.90
3758;DHT22;1894;51.038;13.692;2023-07-31T05:11:42;15.90;99.90
3758;DHT22;1894;51.038;13.692;2023-07-31T05:14:09;16.00;99.90
3758;DHT22;1894;51.038;13.692;2023-07-31T05:16:37;16.10;99.90
3758;DHT22;1894;51.038;13.692;2023-07-31T05:19:04;16.10;99.90
3758;DHT22;1894;51.038;13.692;2023-07-31T05:21:32;16.10;99.90
3758;DHT22;1894;51.038;13.692;2023-07-31T05:23:59;16.20;99.90
3758;DHT22;1894;51.038;13.692;2023-07-31T05:26:26;16.20;99.90
3758;DHT22;1894;51.038;13.692;2023-07-31T05:28:53;16.30;99.90
3758;DHT22;1894;51.038;13.692;2023-07-31T05:31:20;16.30;99.90
3758;DHT22;1894;51.038;13.692;2023-07-31T05:33:49;16.40;99.90
3758;DHT22;1894;51.038;13.692;2023-07-31T05:36:17;16.40;99.90
3758;DHT22;1894;51.038;13.692;2023-07-31T05:38:44;16.40;99.90
3758;DHT22;1894;51.038;13.692;2023-07-31T05:41:12;16.40;99.90
3758;DHT22;1894;51.038;13.692;2023-07-31T05:43:39;16.50;99.90
3758;DHT22;1894;51.038;13.692;2023-07-31T05:46:07;16.50;99.90
3758;DHT22;1894;51.038;13.692;2023-07-31T05:48:36;16.60;99.90
3758;DHT22;1894;51.038;13.692;2023-07-31T05:51:03;16.60;99.90
3758;DHT22;1894;51.038;13.692;2023-07-31T05:53:30;16.70;99.90
3758;DHT22;1894;51.038;13.692;2023-07-31T05:55:57;16.70;99.90
3758;DHT22;1894;51.038;13.692;2023-07-31T05:58:25;16.80;99.90
3758;DHT22;1894;51.038;13.692;2023-07-31T06:00:52;16.80;99.90
3758;DHT22;1894;51.038;13.692;2023-07-31T06:03:19;16.90;99.90
3758;DHT22;1894;51.038;13.692;2023-07-31T06:05:46;16.80;99.90
3758;DHT22;1894;51.038;13.692;2023-07-31T06:08:13;16.80;99.90
3758;DHT22;1894;51.038;13.692;2023-07-31T06:10:41;16.90;99.90
3758;DHT22;1894;51.038;13.692;2023-07-31T06:13:08;16.90;99.90
3758;DHT22;1894;51.038;13.692;2023-07-31T06:15:35;17.00;99.90
3758;DHT22;1894;51.038;13.692;2023-07-31T06:18:03;17.00;99.90
3758;DHT22;1894;51.038;13.692;2023-07-31T06:20:31;17.10;99.90
3758;DHT22;1894;51.038;13.692;2023-07-31T06:22:58;17.10;99.90
3758;DHT22;1894;51.038;13.692;2023-07-31T06:25:25;17.30;99.90
3758;DHT22;1894;51.038;13.692;2023-07-31T06:27:52;17.20;99.90
3758;DHT22;1894;51.038;13.692;2023-07-31T06:30:19;17.20;99.90
3758;DHT22;1894;51.038;13.692;2023-07-31T06:32:46;17.40;99.90
3758;DHT22;1894;51.038;13.692;2023-07-31T06:35:14;17.40;99.90
3758;DHT22;1894;51.038;13.692;2023-07-31T06:37:41;17.40;99.90
3758;DHT22;1894;51.038;13.692;2023-07-31T06:40:10;17.40;99.90
3758;DHT22;1894;51.038;13.692;2023-07-31T06:42:38;17.40;99.90
3758;DHT22;1894;51.038;13.692;2023-07-31T06:45:05;17.40;99.90
3758;DHT22;1894;51.038;13.692;2023-07-31T06:47:33;17.50;99.90
3758;DHT22;1894;51.038;13.692;2023-07-31T06:50:00;17.60;99.90
3758;DHT22;1894;51.038;13.692;2023-07-31T06:52:27;17.60;99.90
3758;DHT22;1894;51.038;13.692;2023-07-31T06:55:03;17.70;99.90
3758;DHT22;1894;51.038;13.692;2023-07-31T06:57:41;17.70;99.90
3758;DHT22;1894;51.038;13.692;2023-07-31T07:00:08;17.70;99.90
3758;DHT22;1894;51.038;13.692;2023-07-31T07:02:35;17.80;99.90
3758;DHT22;1894;51.038;13.692;2023-07-31T07:05:03;17.80;99.90
3758;DHT22;1894;51.038;13.692;2023-07-31T07:07:30;17.80;99.90
3758;DHT22;1894;51.038;13.692;2023-07-31T07:09:57;17.90;99.90
3758;DHT22;1894;51.038;13.692;2023-07-31T07:12:28;18.00;99.90
3758;DHT22;1894;51.038;13.692;2023-07-31T07:14:56;18.20;99.90
3758;DHT22;1894;51.038;13.692;2023-07-31T07:17:28;18.30;99.90
3758;DHT22;1894;51.038;13.692;2023-07-31T07:20:00;18.40;99.90
3758;DHT22;1894;51.038;13.692;2023-07-31T07:22:27;18.50;99.90
3758;DHT22;1894;51.038;13.692;2023-07-31T07:24:56;18.50;99.90
3758;DHT22;1894;51.038;13.692;2023-07-31T07:27:23;18.60;99.90
3758;DHT22;1894;51.038;13.692;2023-07-31T07:29:51;18.60;99.90
3758;DHT22;1894;51.038;13.692;2023-07-31T07:32:21;18.70;99.90
3758;DHT22;1894;51.038;13.692;2023-07-31T07:34:49;18.80;99.90
3758;DHT22;1894;51.038;13.692;2023-07-31T07:37:16;18.90;99.90
3758;DHT22;1894;51.038;13.692;2023-07-31T07:39:44;18.90;99.90
3758;DHT22;1894;51.038;13.692;2023-07-31T07:42:11;18.90;99.90
3758;DHT22;1894;51.038;13.692;2023-07-31T07:44:38;18.90;99.90
3758;DHT22;1894;51.038;13.692;2023-07-31T07:47:05;19.00;99.90
3758;DHT22;1894;51.038;13.692;2023-07-31T07:49:36;19.00;99.90
3758;DHT22;1894;51.038;13.692;2023-07-31T07:52:04;18.90;99.90
3758;DHT22;1894;51.038;13.692;2023-07-31T07:54:31;19.00;99.90
3758;DHT22;1894;51.038;13.692;2023-07-31T07:56:59;19.10;99.90
3758;DHT22;1894;51.038;13.692;2023-07-31T07:59:26;19.00;99.90
3758;DHT22;1894;51.038;13.692;2023-07-31T08:01:53;19.10;99.90
3758;DHT22;1894;51.038;13.692;2023-07-31T08:04:20;19.20;99.90
3758;DHT22;1894;51.038;13.692;2023-07-31T08:06:47;19.50;99.90
3758;DHT22;1894;51.038;13.692;2023-07-31T08:09:15;19.70;99.90
3758;DHT22;1894;51.038;13.692;2023-07-31T08:11:42;19.90;99.90
3758;DHT22;1894;51.038;13.692;2023-07-31T08:14:09;20.00;99.90
3758;DHT22;1894;51.038;13.692;2023-07-31T08:16:36;20.10;99.90
3758;DHT22;1894;51.038;13.692;2023-07-31T08:19:04;20.20;99.90
3758;DHT22;1894;51.038;13.692;2023-07-31T08:21:32;20.30;99.90
3758;DHT22;1894;51.038;13.692;2023-07-31T08:23:59;20.20;99.90
3758;DHT22;1894;51.038;13.692;2023-07-31T08:26:26;20.20;99.90
3758;DHT22;1894;51.038;13.692;2023-07-31T08:28:53;20.20;99.90
3758;DHT22;1894;51.038;13.692;2023-07-31T08:31:20;20.20;99.90
3758;DHT22;1894;51.038;13.692;2023-07-31T08:33:47;20.20;99.90
3758;DHT22;1894;51.038;13.692;2023-07-31T08:36:14;19.90;99.90
3758;DHT22;1894;51.038;13.692;2023-07-31T08:38:41;20.00;99.90
3758;DHT22;1894;51.038;13.692;2023-07-31T08:41:09;19.90;99.90
3758;DHT22;1894;51.038;13.692;2023-07-31T08:43:36;20.00;99.90
3758;DHT22;1894;51.038;13.692;2023-07-31T08:46:05;20.00;99.90
3758;DHT22;1894;51.038;13.692;2023-07-31T08:48:32;20.00;99.90
3758;DHT22;1894;51.038;13.692;2023-07-31T08:51:00;20.00;99.90
3758;DHT22;1894;51.038;13.692;2023-07-31T08:53:27;19.80;99.90
3758;DHT22;1894;51.038;13.692;2023-07-31T08:55:54;19.60;99.90
3758;DHT22;1894;51.038;13.692;2023-07-31T08:58:24;19.60;99.90
3758;DHT22;1894;51.038;13.692;2023-07-31T09:00:52;19.40;99.90
3758;DHT22;1894;51.038;13.692;2023-07-31T09:03:23;19.40;99.90
3758;DHT22;1894;51.038;13.692;2023-07-31T09:05:54;19.50;99.90
3758;DHT22;1894;51.038;13.692;2023-07-31T09:08:23;19.50;99.90
3758;DHT22;1894;51.038;13.692;2023-07-31T09:10:51;19.50;99.90
3758;DHT22;1894;51.038;13.692;2023-07-31T09:13:18;19.50;99.90
3758;DHT22;1894;51.038;13.692;2023-07-31T09:15:46;19.50;99.90
3758;DHT22;1894;51.038;13.692;2023-07-31T09:18:14;19.50;99.90
3758;DHT22;1894;51.038;13.692;2023-07-31T09:20:45;19.50;99.90
3758;DHT22;1894;51.038;13.692;2023-07-31T09:23:13;19.50;99.90
3758;DHT22;1894;51.038;13.692;2023-07-31T09:25:44;19.60;99.90
3758;DHT22;1894;51.038;13.692;2023-07-31T09:28:12;19.70;99.90
3758;DHT22;1894;51.038;13.692;2023-07-31T09:30:50;19.60;99.90
3758;DHT22;1894;51.038;13.692;2023-07-31T09:33:19;19.70;99.90
3758;DHT22;1894;51.038;13.692;2023-07-31T09:35:47;19.60;99.90
3758;DHT22;1894;51.038;13.692;2023-07-31T09:38:17;19.70;99.90
3758;DHT22;1894;51.038;13.692;2023-07-31T09:40:47;19.70;99.90
3758;DHT22;1894;51.038;13.692;2023-07-31T09:43:19;19.80;99.90
3758;DHT22;1894;51.038;13.692;2023-07-31T09:45:48;19.80;99.90
3758;DHT22;1894;51.038;13.692;2023-07-31T09:48:17;20.00;99.90
3758;DHT22;1894;51.038;13.692;2023-07-31T09:50:46;19.80;99.90
3758;DHT22;1894;51.038;13.692;2023-07-31T09:53:16;19.80;99.90
3758;DHT22;1894;51.038;13.692;2023-07-31T09:55:43;19.80;99.90
3758;DHT22;1894;51.038;13.692;2023-07-31T09:58:12;19.90;99.90
3758;DHT22;1894;51.038;13.692;2023-07-31T10:00:40;20.10;99.90
3758;DHT22;1894;51.038;13.692;2023-07-31T10:03:08;20.20;99.90
3758;DHT22;1894;51.038;13.692;2023-07-31T10:08:09;20.20;99.90
3758;DHT22;1894;51.038;13.692;2023-07-31T10:10:41;20.40;99.90
3758;DHT22;1894;51.038;13.692;2023-07-31T10:13:13;20.40;99.90
3758;DHT22;1894;51.038;13.692;2023-07-31T10:15:40;20.40;99.90
3758;DHT22;1894;51.038;13.692;2023-07-31T10:18:10;20.50;99.90
3758;DHT22;1894;51.038;13.692;2023-07-31T10:20:38;20.50;99.90
3758;DHT22;1894;51.038;13.692;2023-07-31T10:23:06;20.40;99.90
3758;DHT22;1894;51.038;13.692;2023-07-31T10:25:34;20.30;99.90
3758;DHT22;1894;51.038;13.692;2023-07-31T10:28:02;20.60;99.90
3758;DHT22;1894;51.038;13.692;2023-07-31T10:30:32;20.80;99.90
3758;DHT22;1894;51.038;13.692;2023-07-31T10:33:00;20.80;99.90
3758;DHT22;1894;51.038;13.692;2023-07-31T10:35:27;20.90;99.90
3758;DHT22;1894;51.038;13.692;2023-07-31T10:37:55;20.90;99.90
3758;DHT22;1894;51.038;13.692;2023-07-31T10:40:26;20.90;99.90
3758;DHT22;1894;51.038;13.692;2023-07-31T10:42:57;21.30;99.90
3758;DHT22;1894;51.038;13.692;2023-07-31T10:45:26;21.50;99.90
3758;DHT22;1894;51.038;13.692;2023-07-31T10:48:23;21.80;99.90
3758;DHT22;1894;51.038;13.692;2023-07-31T10:51:00;21.70;99.90
3758;DHT22;1894;51.038;13.692;2023-07-31T10:53:31;21.90;99.90
3758;DHT22;1894;51.038;13.692;2023-07-31T10:58:32;21.50;99.90
3758;DHT22;1894;51.038;13.692;2023-07-31T11:01:01;21.30;99.90
3758;DHT22;1894;51.038;13.692;2023-07-31T11:03:43;21.30;99.90
3758;DHT22;1894;51.038;13.692;2023-07-31T11:06:14;21.10;99.90
3758;DHT22;1894;51.038;13.692;2023-07-31T11:08:50;21.10;99.90
3758;DHT22;1894;51.038;13.692;2023-07-31T11:11:19;21.20;99.90
3758;DHT22;1894;51.038;13.692;2023-07-31T11:13:49;21.30;99.90
3758;DHT22;1894;51.038;13.692;2023-07-31T11:16:19;21.40;99.90
3758;DHT22;1894;51.038;13.692;2023-07-31T11:18:47;21.70;99.90
3758;DHT22;1894;51.038;13.692;2023-07-31T11:21:17;21.40;99.90
3758;DHT22;1894;51.038;13.692;2023-07-31T11:23:53;21.40;99.90
3758;DHT22;1894;51.038;13.692;2023-07-31T11:26:27;21.50;99.90
3758;DHT22;1894;51.038;13.692;2023-07-31T11:28:54;21.10;99.90
3758;DHT22;1894;51.038;13.692;2023-07-31T11:31:22;21.10;99.90
3758;DHT22;1894;51.038;13.692;2023-07-31T11:33:49;21.40;99.90
3758;DHT22;1894;51.038;13.692;2023-07-31T11:36:18;21.40;99.90
3758;DHT22;1894;51.038;13.692;2023-07-31T11:38:46;21.60;99.90
3758;DHT22;1894;51.038;13.692;2023-07-31T11:41:15;22.40;99.90
3758;DHT22;1894;51.038;13.692;2023-07-31T11:43:43;22.60;99.90
3758;DHT22;1894;51.038;13.692;2023-07-31T11:46:13;22.50;99.90
3758;DHT22;1894;51.038;13.692;2023-07-31T11:48:42;22.80;99.90
3758;DHT22;1894;51.038;13.692;2023-07-31T11:51:11;23.20;99.90
3758;DHT22;1894;51.038;13.692;2023-07-31T11:53:43;23.80;99.90
3758;DHT22;1894;51.038;13.692;2023-07-31T11:56:13;23.80;99.90
3758;DHT22;1894;51.038;13.692;2023-07-31T11:58:42;23.60;99.90
3758;DHT22;1894;51.038;13.692;2023-07-31T12:01:11;23.90;99.90
3758;DHT22;1894;51.038;13.692;2023-07-31T12:03:41;23.70;99.90
3758;DHT22;1894;51.038;13.692;2023-07-31T12:06:09;24.10;99.90
3758;DHT22;1894;51.038;13.692;2023-07-31T12:08:36;23.90;99.90
3758;DHT22;1894;51.038;13.692;2023-07-31T12:11:05;23.90;99.90
3758;DHT22;1894;51.038;13.692;2023-07-31T12:13:33;24.00;99.90
3758;DHT22;1894;51.038;13.692;2023-07-31T12:16:01;24.10;99.90
3758;DHT22;1894;51.038;13.692;2023-07-31T12:18:35;25.40;99.90
3758;DHT22;1894;51.038;13.692;2023-07-31T12:21:05;25.40;99.90
3758;DHT22;1894;51.038;13.692;2023-07-31T12:23:36;25.50;99.90
3758;DHT22;1894;51.038;13.692;2023-07-31T12:26:09;25.20;99.90
3758;DHT22;1894;51.038;13.692;2023-07-31T12:31:20;24.10;99.90
3758;DHT22;1894;51.038;13.692;2023-07-31T12:33:49;24.00;99.90
3758;DHT22;1894;51.038;13.692;2023-07-31T12:36:20;24.30;99.90
3758;DHT22;1894;51.038;13.692;2023-07-31T12:38:51;24.70;99.90
3758;DHT22;1894;51.038;13.692;2023-07-31T12:41:19;25.30;99.90
3758;DHT22;1894;51.038;13.692;2023-07-31T12:43:46;25.20;99.90
3758;DHT22;1894;51.038;13.692;2023-07-31T12:46:13;25.10;99.90
3758;DHT22;1894;51.038;13.692;2023-07-31T12:48:41;25.20;99.90
3758;DHT22;1894;51.038;13.692;2023-07-31T12:51:08;25.50;99.90
3758;DHT22;1894;51.038;13.692;2023-07-31T12:53:36;25.10;99.90
3758;DHT22;1894;51.038;13.692;2023-07-31T12:56:03;24.80;99.90
3758;DHT22;1894;51.038;13.692;2023-07-31T12:58:30;24.70;99.90
3758;DHT22;1894;51.038;13.692;2023-07-31T13:00:58;24.40;99.90
3758;DHT22;1894;51.038;13.692;2023-07-31T13:03:25;24.40;99.90
3758;DHT22;1894;51.038;13.692;2023-07-31T13:05:52;24.10;99.90
3758;DHT22;1894;51.038;13.692;2023-07-31T13:08:20;24.20;99.90
3758;DHT22;1894;51.038;13.692;2023-07-31T13:10:47;24.10;99.90
3758;DHT22;1894;51.038;13.692;2023-07-31T13:13:14;23.80;99.90
3758;DHT22;1894;51.038;13.692;2023-07-31T13:15:43;23.60;99.90
3758;DHT22;1894;51.038;13.692;2023-07-31T13:18:11;23.60;99.90
3758;DHT22;1894;51.038;13.692;2023-07-31T13:20:38;23.50;99.90
3758;DHT22;1894;51.038;13.692;2023-07-31T13:23:05;23.70;99.90
3758;DHT22;1894;51.038;13.692;2023-07-31T13:25:33;23.80;99.90
3758;DHT22;1894;51.038;13.692;2023-07-31T13:28:00;23.60;99.90
3758;DHT22;1894;51.038;13.692;2023-07-31T13:30:29;23.80;99.90
3758;DHT22;1894;51.038;13.692;2023-07-31T13:32:56;23.40;99.90
3758;DHT22;1894;51.038;13.692;2023-07-31T13:35:24;23.60;99.90
3758;DHT22;1894;51.038;13.692;2023-07-31T13:37:51;23.80;99.90
3758;DHT22;1894;51.038;13.692;2023-07-31T13:40:18;23.90;99.90
3758;DHT22;1894;51.038;13.692;2023-07-31T13:42:45;24.40;99.90
3758;DHT22;1894;51.038;13.692;2023-07-31T13:45:13;24.20;99.90
3758;DHT22;1894;51.038;13.692;2023-07-31T13:47:41;24.30;99.90
3758;DHT22;1894;51.038;13.692;2023-07-31T13:50:08;24.80;99.90
3758;DHT22;1894;51.038;13.692;2023-07-31T13:52:36;24.80;99.90
3758;DHT22;1894;51.038;13.692;2023-07-31T13:55:03;25.50;99.90
3758;DHT22;1894;51.038;13.692;2023-07-31T13:57:31;25.70;99.90
3758;DHT22;1894;51.038;13.692;2023-07-31T13:59:58;24.90;99.90
3758;DHT22;1894;51.038;13.692;2023-07-31T14:02:25;25.70;99.90
3758;DHT22;1894;51.038;13.692;2023-07-31T14:04:52;25.90;99.90
3758;DHT22;1894;51.038;13.692;2023-07-31T14:07:19;26.10;99.90
3758;DHT22;1894;51.038;13.692;2023-07-31T14:09:46;25.70;99.90
3758;DHT22;1894;51.038;13.692;2023-07-31T14:12:13;24.70;99.90
3758;DHT22;1894;51.038;13.692;2023-07-31T14:15:00;24.70;99.90
3758;DHT22;1894;51.038;13.692;2023-07-31T14:17:28;25.10;99.90
3758;DHT22;1894;51.038;13.692;2023-07-31T14:19:55;26.10;99.90
3758;DHT22;1894;51.038;13.692;2023-07-31T14:22:29;26.20;99.90
3758;DHT22;1894;51.038;13.692;2023-07-31T14:24:57;28.10;99.90
3758;DHT22;1894;51.038;13.692;2023-07-31T14:27:24;27.70;99.90
3758;DHT22;1894;51.038;13.692;2023-07-31T14:29:51;26.40;99.90
3758;DHT22;1894;51.038;13.692;2023-07-31T14:32:18;26.20;99.90
3758;DHT22;1894;51.038;13.692;2023-07-31T14:34:45;26.00;99.90
3758;DHT22;1894;51.038;13.692;2023-07-31T14:37:12;25.50;99.90
3758;DHT22;1894;51.038;13.692;2023-07-31T14:39:40;26.60;99.90
3758;DHT22;1894;51.038;13.692;2023-07-31T14:42:07;27.40;99.90
3758;DHT22;1894;51.038;13.692;2023-07-31T14:44:34;26.70;99.90
3758;DHT22;1894;51.038;13.692;2023-07-31T14:47:01;26.60;99.90
3758;DHT22;1894;51.038;13.692;2023-07-31T14:49:29;26.30;99.90
3758;DHT22;1894;51.038;13.692;2023-07-31T14:51:56;25.20;99.90
3758;DHT22;1894;51.038;13.692;2023-07-31T14:54:23;24.60;99.90
3758;DHT22;1894;51.038;13.692;2023-07-31T14:56:50;25.00;99.90
3758;DHT22;1894;51.038;13.692;2023-07-31T14:59:18;27.80;99.90
3758;DHT22;1894;51.038;13.692;2023-07-31T15:01:45;29.90;99.90
3758;DHT22;1894;51.038;13.692;2023-07-31T15:04:12;29.40;99.50
3758;DHT22;1894;51.038;13.692;2023-07-31T15:06:39;28.40;99.90
3758;DHT22;1894;51.038;13.692;2023-07-31T15:09:07;27.30;99.90
3758;DHT22;1894;51.038;13.692;2023-07-31T15:11:34;26.30;99.90
3758;DHT22;1894;51.038;13.692;2023-07-31T15:14:02;25.60;99.90
3758;DHT22;1894;51.038;13.692;2023-07-31T15:16:29;24.90;99.90
3758;DHT22;1894;51.038;13.692;2023-07-31T15:18:58;24.50;99.90
3758;DHT22;1894;51.038;13.692;2023-07-31T15:21:25;24.70;99.90
3758;DHT22;1894;51.038;13.692;2023-07-31T15:23:53;25.00;99.90
3758;DHT22;1894;51.038;13.692;2023-07-31T15:26:20;25.40;99.90
3758;DHT22;1894;51.038;13.692;2023-07-31T15:28:49;24.90;99.90
3758;DHT22;1894;51.038;13.692;2023-07-31T15:31:19;24.50;99.90
3758;DHT22;1894;51.038;13.692;2023-07-31T15:33:46;24.50;99.90
3758;DHT22;1894;51.038;13.692;2023-07-31T15:36:14;24.00;99.90
3758;DHT22;1894;51.038;13.692;2023-07-31T15:38:47;23.80;99.90
3758;DHT22;1894;51.038;13.692;2023-07-31T15:41:20;23.40;99.90
3758;DHT22;1894;51.038;13.692;2023-07-31T15:43:48;23.40;99.90
3758;DHT22;1894;51.038;13.692;2023-07-31T15:46:15;23.30;99.90
3758;DHT22;1894;51.038;13.692;2023-07-31T15:48:44;23.30;99.90
3758;DHT22;1894;51.038;13.692;2023-07-31T15:51:11;23.30;99.90
3758;DHT22;1894;51.038;13.692;2023-07-31T15:53:38;23.30;99.90
3758;DHT22;1894;51.038;13.692;2023-07-31T15:56:06;23.30;99.90
3758;DHT22;1894;51.038;13.692;2023-07-31T15:58:33;23.20;99.90
3758;DHT22;1894;51.038;13.692;2023-07-31T16:01:01;23.20;99.90
3758;DHT22;1894;51.038;13.692;2023-07-31T16:03:28;23.00;99.90
3758;DHT22;1894;51.038;13.692;2023-07-31T16:05:55;22.90;99.90